sensor_id;sensor_type;location;lat;lon;timestamp;P1;durP1;ratioP1;P2;durP2;ratioP2
37609;SDS011;23457;51.966;8.230;2023-01-31T00:01:30;35.50;;;5.70;;
37609;SDS011;23457;51.966;8.230;2023-01-31T00:04:01;33.17;;;3.78;;
37609;SDS011;23457;51.966;8.230;2023-01-31T00:06:42;33.47;;;4.50;;
37609;SDS011;23457;51.966;8.230;2023-01-31T00:09:16;31.00;;;3.95;;
37609;SDS011;23457;51.966;8.230;2023-01-31T00:11:44;37.97;;;5.10;;
37609;SDS011;23457;51.966;8.230;2023-01-31T00:14:13;31.52;;;3.08;;
37609;SDS011;23457;51.966;8.230;2023-01-31T00:16:44;32.42;;;3.75;;
37609;SDS011;23457;51.966;8.230;2023-01-31T00:19:11;34.38;;;4.22;;
37609;SDS011;23457;51.966;8.230;2023-01-31T00:21:38;32.10;;;4.13;;
37609;SDS011;23457;51.966;8.230;2023-01-31T00:24:11;31.42;;;4.32;;
37609;SDS011;23457;51.966;8.230;2023-01-31T00:26:38;24.70;;;3.25;;
37609;SDS011;23457;51.966;8.230;2023-01-31T00:29:05;33.40;;;3.75;;
37609;SDS011;23457;51.966;8.230;2023-01-31T00:31:33;35.08;;;3.83;;
37609;SDS011;23457;51.966;8.230;2023-01-31T00:34:01;32.65;;;4.60;;
37609;SDS011;23457;51.966;8.230;2023-01-31T00:36:30;28.25;;;3.70;;
37609;SDS011;23457;51.966;8.230;2023-01-31T00:38:59;38.85;;;5.35;;
37609;SDS011;23457;51.966;8.230;2023-01-31T00:41:28;32.47;;;3.97;;
37609;SDS011;23457;51.966;8.230;2023-01-31T00:43:56;38.83;;;4.72;;
37609;SDS011;23457;51.966;8.230;2023-01-31T00:46:23;31.73;;;4.30;;
37609;SDS011;23457;51.966;8.230;2023-01-31T00:48:51;30.15;;;3.20;;
37609;SDS011;23457;51.966;8.230;2023-01-31T00:51:19;34.13;;;4.28;;
37609;SDS011;23457;51.966;8.230;2023-01-31T00:53:46;25.92;;;3.53;;
37609;SDS011;23457;51.966;8.230;2023-01-31T00:56:15;36.15;;;5.93;;
37609;SDS011;23457;51.966;8.230;2023-01-31T00:58:44;31.52;;;5.90;;
37609;SDS011;23457;51.966;8.230;2023-01-31T01:01:14;35.53;;;4.45;;
37609;SDS011;23457;51.966;8.230;2023-01-31T01:03:44;29.05;;;3.67;;
37609;SDS011;23457;51.966;8.230;2023-01-31T01:06:12;30.73;;;3.33;;
37609;SDS011;23457;51.966;8.230;2023-01-31T01:08:41;30.70;;;3.97;;
37609;SDS011;23457;51.966;8.230;2023-01-31T01:11:10;23.70;;;3.33;;
37609;SDS011;23457;51.966;8.230;2023-01-31T01:13:40;34.53;;;5.00;;
37609;SDS011;23457;51.966;8.230;2023-01-31T01:16:12;27.52;;;3.60;;
37609;SDS011;23457;51.966;8.230;2023-01-31T01:18:40;24.42;;;3.70;;
37609;SDS011;23457;51.966;8.230;2023-01-31T01:21:11;20.30;;;3.72;;
37609;SDS011;23457;51.966;8.230;2023-01-31T01:23:40;32.15;;;4.03;;
37609;SDS011;23457;51.966;8.230;2023-01-31T01:26:13;25.50;;;3.45;;
37609;SDS011;23457;51.966;8.230;2023-01-31T01:28:42;22.20;;;3.42;;
37609;SDS011;23457;51.966;8.230;2023-01-31T01:31:10;34.17;;;4.18;;
37609;SDS011;23457;51.966;8.230;2023-01-31T01:33:39;26.02;;;3.85;;
37609;SDS011;23457;51.966;8.230;2023-01-31T01:36:07;35.97;;;3.75;;
37609;SDS011;23457;51.966;8.230;2023-01-31T01:38:43;23.05;;;2.92;;
37609;SDS011;23457;51.966;8.230;2023-01-31T01:41:11;25.67;;;3.35;;
37609;SDS011;23457;51.966;8.230;2023-01-31T01:49:00;26.27;;;4.28;;
37609;SDS011;23457;51.966;8.230;2023-01-31T01:51:31;21.90;;;3.33;;
37609;SDS011;23457;51.966;8.230;2023-01-31T01:54:01;28.20;;;3.53;;
37609;SDS011;23457;51.966;8.230;2023-01-31T01:56:36;33.50;;;5.57;;
37609;SDS011;23457;51.966;8.230;2023-01-31T01:59:20;29.50;;;3.92;;
37609;SDS011;23457;51.966;8.230;2023-01-31T02:04:28;26.60;;;3.10;;
37609;SDS011;23457;51.966;8.230;2023-01-31T02:06:58;21.45;;;3.05;;
37609;SDS011;23457;51.966;8.230;2023-01-31T02:09:33;24.50;;;4.10;;
37609;SDS011;23457;51.966;8.230;2023-01-31T02:12:08;23.70;;;3.03;;
37609;SDS011;23457;51.966;8.230;2023-01-31T02:14:38;19.33;;;2.88;;
37609;SDS011;23457;51.966;8.230;2023-01-31T02:17:13;30.33;;;5.00;;
37609;SDS011;23457;51.966;8.230;2023-01-31T02:30:58;28.42;;;4.95;;
37609;SDS011;23457;51.966;8.230;2023-01-31T02:33:51;18.50;;;2.63;;
37609;SDS011;23457;51.966;8.230;2023-01-31T02:36:48;18.73;;;2.90;;
37609;SDS011;23457;51.966;8.230;2023-01-31T02:39:38;25.27;;;3.53;;
37609;SDS011;23457;51.966;8.230;2023-01-31T02:42:34;29.77;;;3.72;;
37609;SDS011;23457;51.966;8.230;2023-01-31T02:45:28;24.58;;;2.97;;
37609;SDS011;23457;51.966;8.230;2023-01-31T02:48:12;36.17;;;4.13;;
37609;SDS011;23457;51.966;8.230;2023-01-31T02:55:56;30.67;;;3.72;;
37609;SDS011;23457;51.966;8.230;2023-01-31T02:58:41;30.30;;;4.05;;
37609;SDS011;23457;51.966;8.230;2023-01-31T03:01:16;41.15;;;5.35;;
37609;SDS011;23457;51.966;8.230;2023-01-31T03:03:51;25.60;;;5.30;;
37609;SDS011;23457;51.966;8.230;2023-01-31T03:09:05;27.85;;;4.15;;
37609;SDS011;23457;51.966;8.230;2023-01-31T03:22:50;34.33;;;3.65;;
37609;SDS011;23457;51.966;8.230;2023-01-31T03:25:23;29.20;;;3.78;;
37609;SDS011;23457;51.966;8.230;2023-01-31T03:27:59;30.20;;;4.80;;
37609;SDS011;23457;51.966;8.230;2023-01-31T03:30:36;26.40;;;4.32;;
37609;SDS011;23457;51.966;8.230;2023-01-31T03:33:09;24.55;;;3.30;;
37609;SDS011;23457;51.966;8.230;2023-01-31T03:35:44;27.52;;;3.53;;
37609;SDS011;23457;51.966;8.230;2023-01-31T03:38:19;29.30;;;3.40;;
37609;SDS011;23457;51.966;8.230;2023-01-31T03:40:53;26.00;;;4.78;;
37609;SDS011;23457;51.966;8.230;2023-01-31T03:43:24;27.88;;;3.95;;
37609;SDS011;23457;51.966;8.230;2023-01-31T03:46:08;32.05;;;3.90;;
37609;SDS011;23457;51.966;8.230;2023-01-31T03:48:43;27.45;;;4.30;;
37609;SDS011;23457;51.966;8.230;2023-01-31T03:51:18;27.30;;;4.10;;
37609;SDS011;23457;51.966;8.230;2023-01-31T03:53:51;28.20;;;4.07;;
37609;SDS011;23457;51.966;8.230;2023-01-31T03:59:39;31.77;;;4.55;;
37609;SDS011;23457;51.966;8.230;2023-01-31T04:02:11;27.77;;;4.20;;
37609;SDS011;23457;51.966;8.230;2023-01-31T04:04:44;30.52;;;4.80;;
37609;SDS011;23457;51.966;8.230;2023-01-31T04:07:16;38.13;;;6.70;;
37609;SDS011;23457;51.966;8.230;2023-01-31T04:09:44;44.88;;;5.22;;
37609;SDS011;23457;51.966;8.230;2023-01-31T04:12:12;26.95;;;4.18;;
37609;SDS011;23457;51.966;8.230;2023-01-31T04:14:40;25.38;;;5.03;;
37609;SDS011;23457;51.966;8.230;2023-01-31T04:17:08;23.52;;;4.50;;
37609;SDS011;23457;51.966;8.230;2023-01-31T04:19:34;33.78;;;5.15;;
37609;SDS011;23457;51.966;8.230;2023-01-31T04:22:02;32.28;;;4.35;;
37609;SDS011;23457;51.966;8.230;2023-01-31T04:24:28;25.55;;;5.68;;
37609;SDS011;23457;51.966;8.230;2023-01-31T04:26:55;27.48;;;4.50;;
37609;SDS011;23457;51.966;8.230;2023-01-31T04:29:22;25.83;;;3.83;;
37609;SDS011;23457;51.966;8.230;2023-01-31T04:31:48;27.13;;;4.32;;
37609;SDS011;23457;51.966;8.230;2023-01-31T04:34:15;29.45;;;4.22;;
37609;SDS011;23457;51.966;8.230;2023-01-31T04:36:42;36.20;;;5.40;;
37609;SDS011;23457;51.966;8.230;2023-01-31T04:39:09;31.75;;;5.05;;
37609;SDS011;23457;51.966;8.230;2023-01-31T04:41:37;30.45;;;5.30;;
37609;SDS011;23457;51.966;8.230;2023-01-31T04:44:03;34.58;;;6.63;;
37609;SDS011;23457;51.966;8.230;2023-01-31T04:46:30;30.83;;;4.57;;
37609;SDS011;23457;51.966;8.230;2023-01-31T04:48:57;26.40;;;4.80;;
37609;SDS011;23457;51.966;8.230;2023-01-31T04:51:24;32.55;;;5.07;;
37609;SDS011;23457;51.966;8.230;2023-01-31T04:53:50;29.17;;;5.03;;
37609;SDS011;23457;51.966;8.230;2023-01-31T04:56:17;21.83;;;4.45;;
37609;SDS011;23457;51.966;8.230;2023-01-31T04:58:43;31.65;;;5.20;;
37609;SDS011;23457;51.966;8.230;2023-01-31T05:01:11;24.80;;;5.28;;
37609;SDS011;23457;51.966;8.230;2023-01-31T05:03:37;27.50;;;5.75;;
37609;SDS011;23457;51.966;8.230;2023-01-31T05:06:04;28.88;;;4.53;;
37609;SDS011;23457;51.966;8.230;2023-01-31T05:08:31;25.60;;;4.85;;
37609;SDS011;23457;51.966;8.230;2023-01-31T05:10:58;36.60;;;7.15;;
37609;SDS011;23457;51.966;8.230;2023-01-31T05:13:29;34.03;;;6.65;;
37609;SDS011;23457;51.966;8.230;2023-01-31T05:15:58;24.45;;;4.68;;
37609;SDS011;23457;51.966;8.230;2023-01-31T05:18:25;25.70;;;4.25;;
37609;SDS011;23457;51.966;8.230;2023-01-31T05:20:51;23.15;;;4.43;;
37609;SDS011;23457;51.966;8.230;2023-01-31T05:23:18;21.63;;;6.03;;
37609;SDS011;23457;51.966;8.230;2023-01-31T05:25:47;31.42;;;5.13;;
37609;SDS011;23457;51.966;8.230;2023-01-31T05:28:15;26.67;;;4.63;;
37609;SDS011;23457;51.966;8.230;2023-01-31T05:30:42;29.38;;;5.45;;
37609;SDS011;23457;51.966;8.230;2023-01-31T05:33:09;31.20;;;4.55;;
37609;SDS011;23457;51.966;8.230;2023-01-31T05:35:36;29.17;;;5.53;;
37609;SDS011;23457;51.966;8.230;2023-01-31T05:38:04;23.92;;;4.57;;
37609;SDS011;23457;51.966;8.230;2023-01-31T05:40:31;36.72;;;5.32;;
37609;SDS011;23457;51.966;8.230;2023-01-31T05:42:58;31.48;;;5.82;;
37609;SDS011;23457;51.966;8.230;2023-01-31T05:45:27;31.70;;;5.55;;
37609;SDS011;23457;51.966;8.230;2023-01-31T05:47:54;26.20;;;5.15;;
37609;SDS011;23457;51.966;8.230;2023-01-31T05:50:21;22.88;;;5.18;;
37609;SDS011;23457;51.966;8.230;2023-01-31T05:52:51;34.42;;;7.07;;
37609;SDS011;23457;51.966;8.230;2023-01-31T05:55:20;32.22;;;5.97;;
37609;SDS011;23457;51.966;8.230;2023-01-31T05:57:47;30.88;;;6.28;;
37609;SDS011;23457;51.966;8.230;2023-01-31T06:00:14;31.98;;;7.43;;
37609;SDS011;23457;51.966;8.230;2023-01-31T06:02:42;32.22;;;6.65;;
37609;SDS011;23457;51.966;8.230;2023-01-31T06:05:09;31.38;;;6.72;;
37609;SDS011;23457;51.966;8.230;2023-01-31T06:07:39;28.02;;;6.50;;
37609;SDS011;23457;51.966;8.230;2023-01-31T06:10:06;32.42;;;6.25;;
37609;SDS011;23457;51.966;8.230;2023-01-31T06:12:37;34.63;;;6.00;;
37609;SDS011;23457;51.966;8.230;2023-01-31T06:15:04;31.00;;;6.35;;
37609;SDS011;23457;51.966;8.230;2023-01-31T06:17:31;34.55;;;7.28;;
37609;SDS011;23457;51.966;8.230;2023-01-31T06:19:58;29.25;;;6.80;;
37609;SDS011;23457;51.966;8.230;2023-01-31T06:22:25;28.63;;;6.93;;
37609;SDS011;23457;51.966;8.230;2023-01-31T06:24:52;32.45;;;6.15;;
37609;SDS011;23457;51.966;8.230;2023-01-31T06:27:19;27.52;;;6.57;;
37609;SDS011;23457;51.966;8.230;2023-01-31T06:29:47;31.80;;;7.18;;
37609;SDS011;23457;51.966;8.230;2023-01-31T06:32:13;34.70;;;7.85;;
37609;SDS011;23457;51.966;8.230;2023-01-31T06:34:40;30.63;;;7.78;;
37609;SDS011;23457;51.966;8.230;2023-01-31T06:37:07;33.70;;;7.03;;
37609;SDS011;23457;51.966;8.230;2023-01-31T06:39:35;34.65;;;6.88;;
37609;SDS011;23457;51.966;8.230;2023-01-31T06:42:02;30.83;;;7.68;;
37609;SDS011;23457;51.966;8.230;2023-01-31T06:44:29;34.78;;;8.27;;
37609;SDS011;23457;51.966;8.230;2023-01-31T06:47:01;28.80;;;8.15;;
37609;SDS011;23457;51.966;8.230;2023-01-31T06:49:27;40.83;;;8.30;;
37609;SDS011;23457;51.966;8.230;2023-01-31T06:51:54;26.70;;;7.50;;
37609;SDS011;23457;51.966;8.230;2023-01-31T06:54:21;35.90;;;7.90;;
37609;SDS011;23457;51.966;8.230;2023-01-31T06:56:47;37.08;;;7.82;;
37609;SDS011;23457;51.966;8.230;2023-01-31T06:59:14;32.78;;;8.02;;
37609;SDS011;23457;51.966;8.230;2023-01-31T07:01:41;31.60;;;8.13;;
37609;SDS011;23457;51.966;8.230;2023-01-31T07:04:07;38.33;;;8.55;;
37609;SDS011;23457;51.966;8.230;2023-01-31T07:06:34;33.08;;;7.82;;
37609;SDS011;23457;51.966;8.230;2023-01-31T07:09:01;34.90;;;8.68;;
37609;SDS011;23457;51.966;8.230;2023-01-31T07:11:27;32.58;;;8.88;;
37609;SDS011;23457;51.966;8.230;2023-01-31T07:13:54;33.88;;;9.10;;
37609;SDS011;23457;51.966;8.230;2023-01-31T07:16:21;38.55;;;9.32;;
37609;SDS011;23457;51.966;8.230;2023-01-31T07:18:50;44.28;;;9.55;;
37609;SDS011;23457;51.966;8.230;2023-01-31T07:21:18;41.10;;;10.55;;
37609;SDS011;23457;51.966;8.230;2023-01-31T07:23:45;44.47;;;9.77;;
37609;SDS011;23457;51.966;8.230;2023-01-31T07:26:12;34.05;;;10.88;;
37609;SDS011;23457;51.966;8.230;2023-01-31T07:28:39;40.60;;;9.20;;
37609;SDS011;23457;51.966;8.230;2023-01-31T07:31:06;33.17;;;9.68;;
37609;SDS011;23457;51.966;8.230;2023-01-31T07:33:36;41.90;;;10.93;;
37609;SDS011;23457;51.966;8.230;2023-01-31T07:36:05;36.65;;;9.95;;
37609;SDS011;23457;51.966;8.230;2023-01-31T07:38:33;36.00;;;10.93;;
37609;SDS011;23457;51.966;8.230;2023-01-31T07:41:00;39.40;;;9.07;;
37609;SDS011;23457;51.966;8.230;2023-01-31T07:43:29;30.13;;;9.20;;
37609;SDS011;23457;51.966;8.230;2023-01-31T07:45:57;38.67;;;8.40;;
37609;SDS011;23457;51.966;8.230;2023-01-31T07:48:24;36.05;;;9.80;;
37609;SDS011;23457;51.966;8.230;2023-01-31T07:51:00;28.88;;;9.80;;
37609;SDS011;23457;51.966;8.230;2023-01-31T07:53:28;37.05;;;9.43;;
37609;SDS011;23457;51.966;8.230;2023-01-31T07:56:13;31.48;;;9.82;;
37609;SDS011;23457;51.966;8.230;2023-01-31T07:58:42;40.60;;;10.20;;
37609;SDS011;23457;51.966;8.230;2023-01-31T08:01:13;28.30;;;8.80;;
37609;SDS011;23457;51.966;8.230;2023-01-31T08:04:02;31.88;;;10.10;;
37609;SDS011;23457;51.966;8.230;2023-01-31T08:06:45;31.88;;;10.45;;
37609;SDS011;23457;51.966;8.230;2023-01-31T08:09:13;38.47;;;9.52;;
37609;SDS011;23457;51.966;8.230;2023-01-31T08:11:40;44.42;;;9.55;;
37609;SDS011;23457;51.966;8.230;2023-01-31T08:14:06;36.10;;;9.95;;
37609;SDS011;23457;51.966;8.230;2023-01-31T08:16:34;36.45;;;9.52;;
37609;SDS011;23457;51.966;8.230;2023-01-31T08:19:02;35.90;;;9.45;;
37609;SDS011;23457;51.966;8.230;2023-01-31T08:21:29;32.67;;;8.93;;
37609;SDS011;23457;51.966;8.230;2023-01-31T08:23:56;40.28;;;9.95;;
37609;SDS011;23457;51.966;8.230;2023-01-31T08:26:22;37.53;;;10.10;;
37609;SDS011;23457;51.966;8.230;2023-01-31T08:28:51;35.50;;;9.68;;
37609;SDS011;23457;51.966;8.230;2023-01-31T08:31:24;33.10;;;8.30;;
37609;SDS011;23457;51.966;8.230;2023-01-31T08:33:53;33.80;;;10.25;;
37609;SDS011;23457;51.966;8.230;2023-01-31T08:36:30;31.63;;;10.30;;
37609;SDS011;23457;51.966;8.230;2023-01-31T08:38:57;40.05;;;8.85;;
37609;SDS011;23457;51.966;8.230;2023-01-31T08:41:25;30.58;;;8.70;;
37609;SDS011;23457;51.966;8.230;2023-01-31T08:43:52;31.40;;;8.70;;
37609;SDS011;23457;51.966;8.230;2023-01-31T08:46:24;35.92;;;9.10;;
37609;SDS011;23457;51.966;8.230;2023-01-31T08:48:56;39.03;;;9.60;;
37609;SDS011;23457;51.966;8.230;2023-01-31T08:51:23;27.60;;;9.27;;
37609;SDS011;23457;51.966;8.230;2023-01-31T08:53:50;29.20;;;9.07;;
37609;SDS011;23457;51.966;8.230;2023-01-31T08:56:17;39.80;;;10.23;;
37609;SDS011;23457;51.966;8.230;2023-01-31T09:01:14;32.78;;;11.38;;
37609;SDS011;23457;51.966;8.230;2023-01-31T09:03:43;35.47;;;8.55;;
37609;SDS011;23457;51.966;8.230;2023-01-31T09:06:18;40.90;;;9.50;;
37609;SDS011;23457;51.966;8.230;2023-01-31T09:08:46;41.90;;;11.00;;
37609;SDS011;23457;51.966;8.230;2023-01-31T09:11:13;37.10;;;9.45;;
37609;SDS011;23457;51.966;8.230;2023-01-31T09:13:46;39.95;;;9.57;;
37609;SDS011;23457;51.966;8.230;2023-01-31T09:16:17;38.50;;;11.45;;
37609;SDS011;23457;51.966;8.230;2023-01-31T09:18:44;36.10;;;9.48;;
37609;SDS011;23457;51.966;8.230;2023-01-31T09:21:13;41.53;;;9.73;;
37609;SDS011;23457;51.966;8.230;2023-01-31T09:23:43;31.00;;;9.27;;
37609;SDS011;23457;51.966;8.230;2023-01-31T09:26:11;37.83;;;10.02;;
37609;SDS011;23457;51.966;8.230;2023-01-31T09:28:38;36.90;;;9.38;;
37609;SDS011;23457;51.966;8.230;2023-01-31T09:33:36;37.53;;;9.35;;
37609;SDS011;23457;51.966;8.230;2023-01-31T09:36:04;34.60;;;9.20;;
37609;SDS011;23457;51.966;8.230;2023-01-31T09:38:33;35.03;;;9.05;;
37609;SDS011;23457;51.966;8.230;2023-01-31T09:41:02;34.85;;;9.18;;
37609;SDS011;23457;51.966;8.230;2023-01-31T09:43:38;39.75;;;8.63;;
37609;SDS011;23457;51.966;8.230;2023-01-31T09:46:11;31.40;;;9.02;;
37609;SDS011;23457;51.966;8.230;2023-01-31T09:48:42;36.28;;;8.95;;
37609;SDS011;23457;51.966;8.230;2023-01-31T09:51:12;37.10;;;9.50;;
37609;SDS011;23457;51.966;8.230;2023-01-31T09:53:41;41.60;;;9.25;;
37609;SDS011;23457;51.966;8.230;2023-01-31T09:56:19;30.88;;;7.75;;
37609;SDS011;23457;51.966;8.230;2023-01-31T09:59:06;38.58;;;10.00;;
37609;SDS011;23457;51.966;8.230;2023-01-31T10:04:44;32.90;;;8.88;;
37609;SDS011;23457;51.966;8.230;2023-01-31T10:07:31;37.58;;;8.00;;
37609;SDS011;23457;51.966;8.230;2023-01-31T10:10:04;32.28;;;8.50;;
37609;SDS011;23457;51.966;8.230;2023-01-31T10:12:47;38.08;;;7.85;;
37609;SDS011;23457;51.966;8.230;2023-01-31T10:15:28;29.70;;;7.32;;
37609;SDS011;23457;51.966;8.230;2023-01-31T10:18:11;38.45;;;8.18;;
37609;SDS011;23457;51.966;8.230;2023-01-31T10:20:48;30.00;;;7.47;;
37609;SDS011;23457;51.966;8.230;2023-01-31T10:23:22;30.52;;;7.28;;
37609;SDS011;23457;51.966;8.230;2023-01-31T10:26:00;38.70;;;9.43;;
37609;SDS011;23457;51.966;8.230;2023-01-31T10:28:35;29.15;;;8.13;;
37609;SDS011;23457;51.966;8.230;2023-01-31T10:36:18;26.55;;;9.45;;
37609;SDS011;23457;51.966;8.230;2023-01-31T10:41:30;26.38;;;8.07;;
37609;SDS011;23457;51.966;8.230;2023-01-31T10:44:11;28.05;;;8.68;;
37609;SDS011;23457;51.966;8.230;2023-01-31T10:46:45;27.33;;;8.25;;
37609;SDS011;23457;51.966;8.230;2023-01-31T10:49:13;31.88;;;9.50;;
37609;SDS011;23457;51.966;8.230;2023-01-31T10:56:54;34.85;;;10.35;;
37609;SDS011;23457;51.966;8.230;2023-01-31T10:59:24;25.63;;;10.10;;
37609;SDS011;23457;51.966;8.230;2023-01-31T11:01:56;29.15;;;9.25;;
37609;SDS011;23457;51.966;8.230;2023-01-31T11:06:59;25.88;;;9.48;;
37609;SDS011;23457;51.966;8.230;2023-01-31T11:09:28;26.08;;;10.05;;
37609;SDS011;23457;51.966;8.230;2023-01-31T11:12:00;34.10;;;9.93;;
37609;SDS011;23457;51.966;8.230;2023-01-31T11:14:28;34.50;;;9.68;;
37609;SDS011;23457;51.966;8.230;2023-01-31T11:17:16;29.45;;;10.05;;
37609;SDS011;23457;51.966;8.230;2023-01-31T11:19:50;27.42;;;8.70;;
37609;SDS011;23457;51.966;8.230;2023-01-31T11:22:21;35.50;;;10.02;;
37609;SDS011;23457;51.966;8.230;2023-01-31T11:24:48;30.92;;;10.50;;
37609;SDS011;23457;51.966;8.230;2023-01-31T11:27:26;24.48;;;10.40;;
37609;SDS011;23457;51.966;8.230;2023-01-31T11:29:57;31.85;;;10.80;;
37609;SDS011;23457;51.966;8.230;2023-01-31T11:32:27;27.75;;;12.23;;
37609;SDS011;23457;51.966;8.230;2023-01-31T11:37:49;28.45;;;11.40;;
37609;SDS011;23457;51.966;8.230;2023-01-31T11:43:03;28.80;;;10.80;;
37609;SDS011;23457;51.966;8.230;2023-01-31T11:45:38;29.63;;;11.27;;
37609;SDS011;23457;51.966;8.230;2023-01-31T11:50:39;27.13;;;11.82;;
37609;SDS011;23457;51.966;8.230;2023-01-31T11:53:20;37.22;;;12.60;;
37609;SDS011;23457;51.966;8.230;2023-01-31T11:55:50;29.85;;;11.45;;
37609;SDS011;23457;51.966;8.230;2023-01-31T11:58:32;28.40;;;12.43;;
37609;SDS011;23457;51.966;8.230;2023-01-31T12:01:07;36.20;;;13.73;;
37609;SDS011;23457;51.966;8.230;2023-01-31T12:03:38;37.58;;;14.18;;
37609;SDS011;23457;51.966;8.230;2023-01-31T12:08:59;40.28;;;16.05;;
37609;SDS011;23457;51.966;8.230;2023-01-31T12:11:29;31.33;;;13.93;;
37609;SDS011;23457;51.966;8.230;2023-01-31T12:14:12;32.08;;;14.63;;
37609;SDS011;23457;51.966;8.230;2023-01-31T12:16:41;41.65;;;15.48;;
37609;SDS011;23457;51.966;8.230;2023-01-31T12:26:53;34.53;;;15.80;;
37609;SDS011;23457;51.966;8.230;2023-01-31T12:29:32;31.77;;;14.63;;
37609;SDS011;23457;51.966;8.230;2023-01-31T12:34:37;40.60;;;15.52;;
37609;SDS011;23457;51.966;8.230;2023-01-31T12:37:39;40.22;;;15.27;;
37609;SDS011;23457;51.966;8.230;2023-01-31T12:40:28;44.53;;;16.70;;
37609;SDS011;23457;51.966;8.230;2023-01-31T12:51:28;35.38;;;15.93;;
37609;SDS011;23457;51.966;8.230;2023-01-31T12:54:10;35.30;;;16.05;;
37609;SDS011;23457;51.966;8.230;2023-01-31T13:05:08;43.38;;;17.60;;
37609;SDS011;23457;51.966;8.230;2023-01-31T13:07:46;42.65;;;18.05;;
37609;SDS011;23457;51.966;8.230;2023-01-31T13:10:36;44.50;;;18.98;;
37609;SDS011;23457;51.966;8.230;2023-01-31T13:18:09;46.17;;;17.35;;
37609;SDS011;23457;51.966;8.230;2023-01-31T13:20:39;45.90;;;19.02;;
37609;SDS011;23457;51.966;8.230;2023-01-31T13:23:16;38.45;;;18.83;;
37609;SDS011;23457;51.966;8.230;2023-01-31T13:25:50;43.28;;;18.77;;
37609;SDS011;23457;51.966;8.230;2023-01-31T13:28:25;34.20;;;16.35;;
37609;SDS011;23457;51.966;8.230;2023-01-31T13:30:59;39.38;;;16.88;;
37609;SDS011;23457;51.966;8.230;2023-01-31T13:33:35;29.40;;;15.88;;
37609;SDS011;23457;51.966;8.230;2023-01-31T13:36:22;36.05;;;15.88;;
37609;SDS011;23457;51.966;8.230;2023-01-31T13:38:55;39.95;;;15.27;;
37609;SDS011;23457;51.966;8.230;2023-01-31T13:41:27;37.88;;;15.52;;
37609;SDS011;23457;51.966;8.230;2023-01-31T13:43:56;30.15;;;15.40;;
37609;SDS011;23457;51.966;8.230;2023-01-31T13:46:31;31.73;;;14.52;;
37609;SDS011;23457;51.966;8.230;2023-01-31T13:49:04;28.65;;;14.07;;
37609;SDS011;23457;51.966;8.230;2023-01-31T13:51:42;27.67;;;14.45;;
37609;SDS011;23457;51.966;8.230;2023-01-31T13:56:46;27.20;;;13.77;;
37609;SDS011;23457;51.966;8.230;2023-01-31T13:59:23;29.30;;;13.68;;
37609;SDS011;23457;51.966;8.230;2023-01-31T14:01:52;25.35;;;13.82;;
37609;SDS011;23457;51.966;8.230;2023-01-31T14:04:23;25.73;;;14.05;;
37609;SDS011;23457;51.966;8.230;2023-01-31T14:09:27;25.90;;;14.32;;
37609;SDS011;23457;51.966;8.230;2023-01-31T14:11:56;31.52;;;14.63;;
37609;SDS011;23457;51.966;8.230;2023-01-31T14:14:35;24.77;;;13.65;;
37609;SDS011;23457;51.966;8.230;2023-01-31T14:17:09;24.77;;;12.80;;
37609;SDS011;23457;51.966;8.230;2023-01-31T14:25:00;21.20;;;13.50;;
37609;SDS011;23457;51.966;8.230;2023-01-31T14:34:57;22.77;;;13.40;;
37609;SDS011;23457;51.966;8.230;2023-01-31T14:40:14;23.38;;;12.80;;
37609;SDS011;23457;51.966;8.230;2023-01-31T14:43:11;19.73;;;13.65;;
37609;SDS011;23457;51.966;8.230;2023-01-31T14:46:22;20.08;;;13.13;;
37609;SDS011;23457;51.966;8.230;2023-01-31T15:04:56;21.85;;;12.55;;
37609;SDS011;23457;51.966;8.230;2023-01-31T15:07:26;25.08;;;13.65;;
37609;SDS011;23457;51.966;8.230;2023-01-31T15:09:54;21.05;;;13.82;;
37609;SDS011;23457;51.966;8.230;2023-01-31T15:15:32;23.17;;;13.38;;
37609;SDS011;23457;51.966;8.230;2023-01-31T15:18:18;27.35;;;13.27;;
37609;SDS011;23457;51.966;8.230;2023-01-31T15:20:50;22.58;;;13.07;;
37609;SDS011;23457;51.966;8.230;2023-01-31T15:23:24;18.27;;;12.45;;
37609;SDS011;23457;51.966;8.230;2023-01-31T15:25:54;25.48;;;13.88;;
37609;SDS011;23457;51.966;8.230;2023-01-31T15:28:24;26.38;;;14.05;;
37609;SDS011;23457;51.966;8.230;2023-01-31T15:30:54;27.48;;;14.63;;
37609;SDS011;23457;51.966;8.230;2023-01-31T15:33:34;24.20;;;14.05;;
37609;SDS011;23457;51.966;8.230;2023-01-31T15:36:18;26.23;;;15.52;;
37609;SDS011;23457;51.966;8.230;2023-01-31T15:38:56;23.95;;;14.88;;
37609;SDS011;23457;51.966;8.230;2023-01-31T15:41:37;26.95;;;15.85;;
37609;SDS011;23457;51.966;8.230;2023-01-31T15:46:52;26.52;;;14.93;;
37609;SDS011;23457;51.966;8.230;2023-01-31T15:49:30;26.42;;;15.45;;
37609;SDS011;23457;51.966;8.230;2023-01-31T15:54:37;31.52;;;16.98;;
37609;SDS011;23457;51.966;8.230;2023-01-31T15:57:08;25.40;;;15.60;;
37609;SDS011;23457;51.966;8.230;2023-01-31T15:59:41;22.10;;;16.15;;
37609;SDS011;23457;51.966;8.230;2023-01-31T16:02:15;26.73;;;15.88;;
37609;SDS011;23457;51.966;8.230;2023-01-31T16:04:46;28.38;;;16.42;;
37609;SDS011;23457;51.966;8.230;2023-01-31T16:07:17;29.25;;;17.42;;
37609;SDS011;23457;51.966;8.230;2023-01-31T16:09:46;27.75;;;17.25;;
37609;SDS011;23457;51.966;8.230;2023-01-31T16:12:13;27.67;;;17.98;;
37609;SDS011;23457;51.966;8.230;2023-01-31T16:14:42;33.85;;;17.50;;
37609;SDS011;23457;51.966;8.230;2023-01-31T16:17:11;30.60;;;17.73;;
37609;SDS011;23457;51.966;8.230;2023-01-31T16:19:38;33.65;;;19.55;;
37609;SDS011;23457;51.966;8.230;2023-01-31T16:25:20;29.85;;;18.90;;
37609;SDS011;23457;51.966;8.230;2023-01-31T16:27:47;27.70;;;18.23;;
37609;SDS011;23457;51.966;8.230;2023-01-31T16:30:15;27.58;;;18.50;;
37609;SDS011;23457;51.966;8.230;2023-01-31T16:32:43;35.22;;;19.30;;
37609;SDS011;23457;51.966;8.230;2023-01-31T16:35:19;34.50;;;19.65;;
37609;SDS011;23457;51.966;8.230;2023-01-31T16:40:27;36.45;;;19.52;;
37609;SDS011;23457;51.966;8.230;2023-01-31T16:43:10;35.78;;;20.30;;
37609;SDS011;23457;51.966;8.230;2023-01-31T16:48:31;36.33;;;18.85;;
37609;SDS011;23457;51.966;8.230;2023-01-31T16:51:00;34.58;;;20.38;;
37609;SDS011;23457;51.966;8.230;2023-01-31T16:56:45;29.85;;;15.52;;
37609;SDS011;23457;51.966;8.230;2023-01-31T17:02:12;29.83;;;18.27;;
37609;SDS011;23457;51.966;8.230;2023-01-31T17:04:50;37.20;;;18.65;;
37609;SDS011;23457;51.966;8.230;2023-01-31T17:07:21;42.38;;;19.25;;
37609;SDS011;23457;51.966;8.230;2023-01-31T17:09:56;34.83;;;19.30;;
37609;SDS011;23457;51.966;8.230;2023-01-31T17:12:30;28.70;;;16.92;;
37609;SDS011;23457;51.966;8.230;2023-01-31T17:14:59;41.47;;;18.73;;
37609;SDS011;23457;51.966;8.230;2023-01-31T17:19:59;33.13;;;15.05;;
37609;SDS011;23457;51.966;8.230;2023-01-31T17:22:26;34.15;;;15.82;;
37609;SDS011;23457;51.966;8.230;2023-01-31T17:24:52;33.83;;;14.88;;
37609;SDS011;23457;51.966;8.230;2023-01-31T17:27:19;28.75;;;15.20;;
37609;SDS011;23457;51.966;8.230;2023-01-31T17:29:47;30.85;;;14.93;;
37609;SDS011;23457;51.966;8.230;2023-01-31T17:32:15;32.60;;;14.45;;
37609;SDS011;23457;51.966;8.230;2023-01-31T17:34:43;31.98;;;15.13;;
37609;SDS011;23457;51.966;8.230;2023-01-31T17:37:11;32.60;;;13.68;;
37609;SDS011;23457;51.966;8.230;2023-01-31T17:39:41;27.60;;;12.80;;
37609;SDS011;23457;51.966;8.230;2023-01-31T17:42:26;37.15;;;14.68;;
37609;SDS011;23457;51.966;8.230;2023-01-31T17:44:53;32.75;;;13.05;;
37609;SDS011;23457;51.966;8.230;2023-01-31T17:47:21;28.30;;;12.73;;